Time;durP1;ratioP1;P1;durP2;ratioP2;P2;SDS_P1;SDS_P2;PMS_P1;PMS_P2;Temp;Humidity;BMP_temperature;BMP_pressure;BME280_temperature;BME280_humidity;BME280_pressure;Samples;Min_cycle;Max_cycle;Signal;HPM_P1;HPM_P2
2021/09/30 00:01:59;;;;;;;2.77;1.00;;;;;;;-145.18;0.00;102943.50;5074754;28;20516;-71
2021/09/30 00:04:25;;;;;;;2.50;1.20;;;;;;;-145.18;0.00;102943.50;5078804;28;20567;-71
2021/09/30 00:06:51;;;;;;;2.57;1.20;;;;;;;-145.18;0.00;102943.50;5079493;28;20502;-71
2021/09/30 00:09:17;;;;;;;2.73;1.00;;;;;;;-145.18;0.00;102943.50;5073026;28;20024;-71
2021/09/30 00:11:46;;;;;;;3.03;1.00;;;;;;;-145.18;0.00;102943.50;5080529;28;20428;-71
2021/09/30 00:14:28;;;;;;;5.43;1.93;;;;;;;-145.18;0.00;102943.50;5075343;28;20423;-71
2021/09/30 00:17:19;;;;;;;;;;;;;;;-145.18;0.00;102943.50;5077184;28;20032;-71
2021/09/30 00:33:45;;;;;;;4.10;1.20;;;;;;;-145.18;0.00;102943.50;5074597;28;20287;-71
2021/09/30 00:42:23;;;;;;;4.57;1.20;;;;;;;-145.18;0.00;102943.50;5070161;28;20075;-71
2021/09/30 00:48:02;;;;;;;5.93;1.80;;;;;;;-145.18;0.00;102943.50;5067654;28;20562;-71
2021/09/30 01:23:09;;;;;;;6.50;1.40;;;;;;;-145.18;0.00;102943.50;5055992;28;20433;-72
2021/09/30 02:18:08;;;;;;;3.23;1.43;;;;;;;-145.18;0.00;102943.50;5070747;28;20331;-72
2021/09/30 02:24:09;;;;;;;2.23;1.10;;;;;;;-145.18;0.00;102943.50;5071211;28;20043;-68
2021/09/30 02:27:06;;;;;;;5.00;1.30;;;;;;;-145.18;0.00;102943.50;5062608;28;20247;-68
2021/09/30 02:29:49;;;;;;;6.33;1.50;;;;;;;-145.18;0.00;102943.50;5064043;28;20028;-68
2021/09/30 03:00:19;;;;;;;3.40;1.03;;;;;;;-145.18;0.00;102943.50;5068859;28;20290;-67
2021/09/30 03:02:49;;;;;;;2.67;1.20;;;;;;;-145.18;0.00;102943.50;5070255;28;20048;-67
2021/09/30 03:05:15;;;;;;;2.77;1.03;;;;;;;-145.18;0.00;102943.50;5077111;28;20028;-67
2021/09/30 03:07:41;;;;;;;3.77;1.00;;;;;;;-145.18;0.00;102943.50;5076482;28;20027;-67
2021/09/30 03:10:08;;;;;;;6.17;1.83;;;;;;;-145.18;0.00;102943.50;5064848;28;20026;-67
2021/09/30 03:12:36;;;;;;;7.03;1.67;;;;;;;-145.18;0.00;102943.50;5081172;28;20038;-67
2021/09/30 03:15:17;;;;;;;1.90;0.80;;;;;;;-145.18;0.00;102943.50;5075780;28;20302;-67
2021/09/30 03:17:51;;;;;;;2.77;1.00;;;;;;;-145.18;0.00;102943.50;5071815;28;20156;-67
2021/09/30 03:20:31;;;;;;;7.10;1.57;;;;;;;-145.18;0.00;102943.50;5068133;28;20114;-67
2021/09/30 03:23:08;;;;;;;4.63;1.10;;;;;;;-145.18;0.00;102943.50;5073552;28;20026;-67
2021/09/30 03:25:34;;;;;;;5.67;1.00;;;;;;;-145.18;0.00;102943.50;5079822;28;20575;-67
2021/09/30 03:28:01;;;;;;;5.20;2.07;;;;;;;-145.18;0.00;102943.50;5074937;28;20024;-67
2021/09/30 03:30:28;;;;;;;3.57;1.10;;;;;;;-145.18;0.00;102943.50;5072165;28;20519;-67
2021/09/30 03:32:55;;;;;;;3.27;1.10;;;;;;;-145.18;0.00;102943.50;5064518;28;20276;-67
2021/09/30 03:35:23;;;;;;;4.07;1.80;;;;;;;-145.18;0.00;102943.50;5080919;28;20255;-67
2021/09/30 03:37:49;;;;;;;6.47;1.20;;;;;;;-145.18;0.00;102943.50;5079553;28;20035;-67
2021/09/30 03:40:14;;;;;;;3.57;1.17;;;;;;;-145.18;0.00;102943.50;5075277;28;20265;-67
2021/09/30 03:42:40;;;;;;;4.47;1.30;;;;;;;-145.18;0.00;102943.50;5075265;28;20024;-67
2021/09/30 03:45:06;;;;;;;4.27;1.40;;;;;;;-145.18;0.00;102943.50;5072586;28;20028;-67
2021/09/30 03:47:32;;;;;;;2.03;1.10;;;;;;;-145.18;0.00;102943.50;5073587;28;20333;-67
2021/09/30 03:49:57;;;;;;;2.40;1.20;;;;;;;-145.18;0.00;102943.50;5078726;28;20434;-67
2021/09/30 03:55:41;;;;;;;3.40;1.30;;;;;;;-145.18;0.00;102943.50;5017387;28;20029;-67
2021/09/30 04:00:51;;;;;;;7.13;1.30;;;;;;;-145.18;0.00;102943.50;5015971;28;20088;-67
2021/09/30 04:03:16;;;;;;;2.67;1.07;;;;;;;-145.18;0.00;102943.50;5013838;28;20054;-67
2021/09/30 04:05:42;;;;;;;3.57;1.40;;;;;;;-145.18;0.00;102943.50;5015633;28;20502;-67
2021/09/30 04:08:08;;;;;;;2.57;1.20;;;;;;;-145.18;0.00;102943.50;5017209;28;20551;-67
2021/09/30 04:10:33;;;;;;;3.27;1.30;;;;;;;-145.18;0.00;102943.50;5016380;28;20068;-67
2021/09/30 04:13:00;;;;;;;2.77;0.90;;;;;;;-145.18;0.00;102943.50;5017406;28;20059;-67
2021/09/30 04:15:25;;;;;;;3.33;1.07;;;;;;;-145.18;0.00;102943.50;5016117;28;20164;-67
2021/09/30 04:17:51;;;;;;;3.33;1.37;;;;;;;-145.18;0.00;102943.50;5014057;28;20037;-69
2021/09/30 04:20:17;;;;;;;2.47;1.30;;;;;;;-145.18;0.00;102943.50;5010398;28;20100;-67
2021/09/30 04:22:44;;;;;;;5.23;1.37;;;;;;;-145.18;0.00;102943.50;5016071;28;20091;-67
2021/09/30 04:25:10;;;;;;;4.10;1.20;;;;;;;-145.18;0.00;102943.50;5014159;28;20033;-67
2021/09/30 04:27:36;;;;;;;3.80;1.50;;;;;;;-145.18;0.00;102943.50;5009066;28;20067;-67
2021/09/30 04:30:03;;;;;;;3.53;1.20;;;;;;;-145.18;0.00;102943.50;5057191;28;20086;-67
2021/09/30 04:32:29;;;;;;;2.80;1.20;;;;;;;-145.18;0.00;102943.50;5077755;28;20054;-67
2021/09/30 04:34:54;;;;;;;3.93;1.10;;;;;;;-145.18;0.00;102943.50;5079075;28;20047;-67
2021/09/30 04:37:20;;;;;;;5.03;1.37;;;;;;;-145.18;0.00;102943.50;5073083;28;20766;-67
2021/09/30 04:39:45;;;;;;;3.73;1.33;;;;;;;-145.18;0.00;102943.50;5071093;28;20036;-67
2021/09/30 04:42:11;;;;;;;5.27;1.17;;;;;;;-145.18;0.00;102943.50;5079558;28;20032;-67
2021/09/30 04:44:37;;;;;;;7.67;1.30;;;;;;;-145.18;0.00;102943.50;5079496;28;20196;-67
2021/09/30 04:47:02;;;;;;;5.90;1.40;;;;;;;-145.18;0.00;102943.50;5072758;28;20078;-67
2021/09/30 04:49:28;;;;;;;4.73;1.70;;;;;;;-145.18;0.00;102943.50;5065923;28;20029;-67
2021/09/30 04:51:53;;;;;;;4.80;1.70;;;;;;;-145.18;0.00;102943.50;5063939;28;20016;-67
2021/09/30 04:54:19;;;;;;;6.10;1.60;;;;;;;-145.18;0.00;102943.50;5066057;28;20488;-67
2021/09/30 04:56:44;;;;;;;5.63;1.80;;;;;;;-145.18;0.00;102943.50;5061924;28;20413;-67
2021/09/30 04:59:10;;;;;;;4.13;1.50;;;;;;;-145.18;0.00;102943.50;5077295;28;20028;-67
2021/09/30 05:01:35;;;;;;;4.43;1.70;;;;;;;-145.18;0.00;102943.50;5071918;28;20031;-67
2021/09/30 05:04:01;;;;;;;7.57;1.70;;;;;;;-145.18;0.00;102943.50;5076607;28;20732;-67
2021/09/30 05:06:27;;;;;;;4.93;1.50;;;;;;;-145.18;0.00;102943.50;5075644;28;20035;-67
2021/09/30 05:08:57;;;;;;;2.70;1.40;;;;;;;-145.18;0.00;102943.50;5071891;28;20024;-67
2021/09/30 05:11:23;;;;;;;3.57;1.70;;;;;;;-145.18;0.00;102943.50;5062093;28;20484;-68
2021/09/30 05:13:53;;;;;;;5.10;1.70;;;;;;;-145.18;0.00;102943.50;5067195;28;20022;-68
2021/09/30 05:16:18;;;;;;;5.07;1.97;;;;;;;-145.18;0.00;102943.50;5064491;28;20036;-67
2021/09/30 05:18:49;;;;;;;5.60;1.50;;;;;;;-145.18;0.00;102943.50;5067761;28;20050;-67
2021/09/30 05:21:15;;;;;;;4.70;1.60;;;;;;;-145.18;0.00;102943.50;5068943;28;20385;-67
2021/09/30 05:23:40;;;;;;;4.17;1.53;;;;;;;-145.18;0.00;102943.50;5078524;28;20647;-68
2021/09/30 05:26:07;;;;;;;6.67;1.90;;;;;;;-145.18;0.00;102943.50;5075523;28;20028;-67
2021/09/30 05:28:32;;;;;;;3.90;1.70;;;;;;;-145.18;0.00;102943.50;5072300;28;20032;-68
2021/09/30 05:30:58;;;;;;;9.53;2.20;;;;;;;-145.18;0.00;102943.50;5073569;28;20200;-67
2021/09/30 05:33:24;;;;;;;3.13;1.50;;;;;;;-145.18;0.00;102943.50;5076812;28;20111;-67
2021/09/30 05:35:50;;;;;;;5.53;1.97;;;;;;;-145.18;0.00;102943.50;5071104;28;20399;-68
2021/09/30 05:38:16;;;;;;;5.10;1.70;;;;;;;-145.18;0.00;102943.50;5074272;28;20035;-69
2021/09/30 05:40:48;;;;;;;5.90;1.60;;;;;;;-145.18;0.00;102943.50;5076475;28;20046;-68
2021/09/30 05:43:35;;;;;;;6.47;3.05;;;;;;;-145.18;0.00;102943.50;5069360;28;20027;-69
2021/09/30 05:46:02;;;;;;;6.13;2.00;;;;;;;-145.18;0.00;102943.50;5072688;28;20267;-69
2021/09/30 05:48:29;;;;;;;5.27;1.80;;;;;;;-145.18;0.00;102943.50;5072519;28;20399;-69
2021/09/30 05:50:55;;;;;;;4.47;1.73;;;;;;;-145.18;0.00;102943.50;5071846;28;20055;-68
2021/09/30 05:53:21;;;;;;;3.83;1.90;;;;;;;-145.18;0.00;102943.50;5072141;28;20051;-67
2021/09/30 05:55:47;;;;;;;5.90;2.00;;;;;;;-145.18;0.00;102943.50;5074374;28;20208;-69
2021/09/30 05:58:14;;;;;;;4.87;1.90;;;;;;;-145.18;0.00;102943.50;5062416;28;20051;-68
2021/09/30 06:12:20;;;;;;;3.83;1.70;;;;;;;-145.18;0.00;102943.50;4939728;28;20508;-68
2021/09/30 06:14:46;;;;;;;5.23;1.50;;;;;;;-145.18;0.00;102943.50;4937743;28;20534;-68
2021/09/30 06:17:12;;;;;;;5.80;1.90;;;;;;;-145.18;0.00;102943.50;4937681;28;20035;-68
2021/09/30 06:19:37;;;;;;;4.67;1.80;;;;;;;-145.18;0.00;102943.50;4937115;28;20530;-68
2021/09/30 06:22:07;;;;;;;5.47;1.90;;;;;;;-145.18;0.00;102943.50;4941791;28;20069;-68
2021/09/30 06:24:34;;;;;;;6.03;1.93;;;;;;;-145.18;0.00;102943.50;4940204;28;20047;-68
2021/09/30 06:27:00;;;;;;;7.80;2.03;;;;;;;-145.18;0.00;102943.50;4937485;28;20670;-68
2021/09/30 06:29:25;;;;;;;5.37;1.67;;;;;;;-145.18;0.00;102943.50;4937314;28;20043;-68
2021/09/30 06:31:51;;;;;;;7.20;1.80;;;;;;;-145.18;0.00;102943.50;4937254;28;20053;-68
2021/09/30 06:34:17;;;;;;;8.07;2.50;;;;;;;-145.18;0.00;102943.50;4937477;28;20031;-68
2021/09/30 06:36:42;;;;;;;5.27;2.17;;;;;;;-145.18;0.00;102943.50;4936966;28;20472;-68
2021/09/30 06:39:08;;;;;;;6.30;2.27;;;;;;;-145.18;0.00;102943.50;4990744;28;20049;-68
2021/09/30 06:41:33;;;;;;;7.30;1.90;;;;;;;-145.18;0.00;102943.50;5028732;28;20524;-68
2021/09/30 06:43:59;;;;;;;5.03;2.07;;;;;;;-145.18;0.00;102943.50;5073573;28;20530;-68
2021/09/30 06:46:25;;;;;;;5.27;1.87;;;;;;;-145.18;0.00;102943.50;5081446;28;20039;-68
2021/09/30 06:48:51;;;;;;;8.30;2.20;;;;;;;-145.18;0.00;102943.50;5074426;28;20020;-68
2021/09/30 06:51:16;;;;;;;5.57;2.10;;;;;;;-145.18;0.00;102943.50;5082028;28;20028;-68
2021/09/30 06:53:42;;;;;;;7.27;2.13;;;;;;;-145.18;0.00;102943.50;5072775;28;20637;-68
2021/09/30 06:56:10;;;;;;;4.93;1.70;;;;;;;-145.18;0.00;102943.50;5077022;28;20193;-68
2021/09/30 06:58:42;;;;;;;3.80;1.80;;;;;;;-145.18;0.00;102943.50;5069274;28;20032;-68
2021/09/30 07:01:11;;;;;;;6.63;2.13;;;;;;;-145.18;0.00;102943.50;5081187;28;20584;-68
2021/09/30 07:03:37;;;;;;;5.87;2.00;;;;;;;-145.18;0.00;102943.50;5077549;28;20054;-68
2021/09/30 07:06:03;;;;;;;5.63;1.70;;;;;;;-145.18;0.00;102943.50;5080824;28;20094;-68
2021/09/30 07:08:29;;;;;;;6.40;1.93;;;;;;;-145.18;0.00;102943.50;5075763;28;20093;-68
2021/09/30 07:10:54;;;;;;;9.20;1.93;;;;;;;-145.18;0.00;102943.50;5079962;28;20480;-68
2021/09/30 07:13:21;;;;;;;3.83;1.57;;;;;;;-145.18;0.00;102943.50;5075678;28;20054;-68
2021/09/30 07:15:47;;;;;;;6.13;2.03;;;;;;;-145.18;0.00;102943.50;5082232;28;20054;-68
2021/09/30 07:18:18;;;;;;;4.73;1.73;;;;;;;-145.18;0.00;102943.50;5077371;28;20055;-68
2021/09/30 07:20:43;;;;;;;6.80;1.97;;;;;;;-145.18;0.00;102943.50;5077205;28;20032;-68
2021/09/30 07:23:09;;;;;;;4.27;1.70;;;;;;;-145.18;0.00;102943.50;5076457;28;20448;-68
2021/09/30 07:25:34;;;;;;;6.97;1.60;;;;;;;-145.18;0.00;102943.50;5076816;28;20058;-68
2021/09/30 07:28:00;;;;;;;4.47;1.47;;;;;;;-145.18;0.00;102943.50;5073278;28;20433;-68
2021/09/30 07:30:25;;;;;;;6.17;1.83;;;;;;;-145.18;0.00;102943.50;5081558;28;20280;-68
2021/09/30 07:32:51;;;;;;;6.03;1.80;;;;;;;-145.18;0.00;102943.50;5079622;28;20036;-68
2021/09/30 07:35:17;;;;;;;5.53;1.63;;;;;;;-145.18;0.00;102943.50;5081298;28;20283;-68
2021/09/30 07:37:44;;;;;;;8.30;2.10;;;;;;;-145.18;0.00;102943.50;5067567;28;20052;-68
2021/09/30 07:40:11;;;;;;;6.27;1.77;;;;;;;-145.18;0.00;102943.50;5075796;28;20174;-68
2021/09/30 07:42:36;;;;;;;4.40;1.53;;;;;;;-145.18;0.00;102943.50;5079936;28;20379;-68
2021/09/30 07:45:02;;;;;;;7.13;1.70;;;;;;;-145.18;0.00;102943.50;5078839;28;20028;-68
2021/09/30 07:47:28;;;;;;;5.40;1.90;;;;;;;-145.18;0.00;102943.50;5081399;28;20028;-68
2021/09/30 07:49:53;;;;;;;4.00;1.63;;;;;;;-145.18;0.00;102943.50;5079764;28;20085;-68
2021/09/30 07:52:19;;;;;;;4.53;1.60;;;;;;;-145.18;0.00;102943.50;5079158;28;20050;-68
2021/09/30 07:54:44;;;;;;;7.00;1.73;;;;;;;-145.18;0.00;102943.50;5073753;28;20702;-68
2021/09/30 07:57:10;;;;;;;4.37;1.40;;;;;;;-145.18;0.00;102943.50;5071060;28;20114;-68
2021/09/30 07:59:35;;;;;;;4.27;1.37;;;;;;;-145.18;0.00;102943.50;5073941;28;20298;-68
2021/09/30 08:02:01;;;;;;;7.80;1.53;;;;;;;-145.18;0.00;102943.50;5080873;28;20036;-68
2021/09/30 08:04:27;;;;;;;5.43;1.90;;;;;;;-145.18;0.00;102943.50;5073402;28;20154;-68
2021/09/30 08:06:52;;;;;;;3.87;1.40;;;;;;;-145.18;0.00;102943.50;5075078;28;20039;-68
2021/09/30 08:09:19;;;;;;;6.97;1.50;;;;;;;-145.18;0.00;102943.50;5069950;28;20024;-68
2021/09/30 08:11:46;;;;;;;5.77;1.20;;;;;;;-145.18;0.00;102943.50;5073916;28;20028;-68
2021/09/30 08:14:11;;;;;;;5.93;1.20;;;;;;;-145.18;0.00;102943.50;5070465;28;20089;-68
2021/09/30 08:16:37;;;;;;;7.13;1.60;;;;;;;-145.18;0.00;102943.50;5075286;28;20024;-68
2021/09/30 08:19:03;;;;;;;6.33;1.60;;;;;;;-145.18;0.00;102943.50;5068167;28;20036;-68
2021/09/30 08:21:28;;;;;;;5.60;1.30;;;;;;;-145.18;0.00;102943.50;5080916;28;20409;-68
2021/09/30 08:23:55;;;;;;;7.00;1.80;;;;;;;-145.18;0.00;102943.50;5071240;28;20074;-68
2021/09/30 08:26:23;;;;;;;6.00;1.33;;;;;;;-145.18;0.00;102943.50;5081039;28;20270;-68
2021/09/30 08:28:51;;;;;;;4.07;1.17;;;;;;;-145.18;0.00;102943.50;5072335;28;20114;-68
2021/09/30 08:31:19;;;;;;;4.70;1.13;;;;;;;-145.18;0.00;102943.50;5080885;28;20389;-68
2021/09/30 08:33:46;;;;;;;5.13;1.00;;;;;;;-145.18;0.00;102943.50;5072476;28;20031;-68
2021/09/30 08:36:14;;;;;;;4.80;1.00;;;;;;;-145.18;0.00;102943.50;5070514;28;20099;-68
2021/09/30 08:38:42;;;;;;;3.80;0.90;;;;;;;-145.18;0.00;102943.50;5074731;28;20020;-68
2021/09/30 08:41:08;;;;;;;5.53;1.33;;;;;;;-145.18;0.00;102943.50;5080477;28;20158;-68
2021/09/30 08:43:34;;;;;;;3.07;0.90;;;;;;;-145.18;0.00;102943.50;5078786;28;20020;-68
2021/09/30 08:46:00;;;;;;;3.83;1.03;;;;;;;-145.18;0.00;102943.50;5072751;28;20480;-68
2021/09/30 08:48:26;;;;;;;4.73;1.13;;;;;;;-145.18;0.00;102943.50;5073348;28;20092;-68
2021/09/30 08:50:51;;;;;;;3.00;1.00;;;;;;;-145.18;0.00;102943.50;5069078;28;20261;-68
2021/09/30 08:53:17;;;;;;;2.53;0.90;;;;;;;-145.18;0.00;102943.50;5079764;28;20027;-68
2021/09/30 08:55:43;;;;;;;3.80;0.83;;;;;;;-145.18;0.00;102943.50;5073687;28;20013;-68
2021/09/30 08:58:09;;;;;;;4.40;1.20;;;;;;;-145.18;0.00;102943.50;5068129;28;20032;-68
2021/09/30 09:00:40;;;;;;;6.07;1.00;;;;;;;-145.18;0.00;102943.50;5066864;28;20386;-68
2021/09/30 09:03:06;;;;;;;4.17;0.93;;;;;;;-145.18;0.00;102943.50;5076577;28;20199;-68
2021/09/30 09:05:32;;;;;;;5.67;1.30;;;;;;;-145.18;0.00;102943.50;5077805;28;20599;-68
2021/09/30 09:08:03;;;;;;;7.57;1.00;;;;;;;-145.18;0.00;102943.50;5078773;28;20082;-68
2021/09/30 09:10:31;;;;;;;4.57;1.10;;;;;;;-145.18;0.00;102943.50;5079805;28;20024;-68
2021/09/30 09:13:15;;;;;;;4.23;0.90;;;;;;;-145.18;0.00;102943.50;5076812;28;20174;-68
2021/09/30 09:15:54;;;;;;;1.90;0.90;;;;;;;-145.18;0.00;102943.50;5073153;28;20028;-68
2021/09/30 09:18:50;;;;;;;4.47;1.23;;;;;;;-145.18;0.00;102943.50;5075401;28;20221;-68
2021/09/30 09:21:22;;;;;;;4.33;1.40;;;;;;;-145.18;0.00;102943.50;5061552;28;20256;-68
2021/09/30 09:23:59;;;;;;;5.33;0.90;;;;;;;-145.18;0.00;102943.50;5076835;28;20029;-68
2021/09/30 09:26:32;;;;;;;6.67;1.30;;;;;;;-145.18;0.00;102943.50;5078745;28;20084;-68
2021/09/30 09:29:14;;;;;;;4.97;1.20;;;;;;;-145.18;0.00;102943.50;5074472;28;20031;-68
2021/09/30 09:31:48;;;;;;;7.87;1.30;;;;;;;-145.18;0.00;102943.50;5077182;28;20070;-68
2021/09/30 09:34:23;;;;;;;8.30;1.47;;;;;;;-145.18;0.00;102943.50;5077918;28;20276;-68
2021/09/30 09:36:51;;;;;;;4.37;1.00;;;;;;;-145.18;0.00;102943.50;5067171;28;20027;-68
2021/09/30 09:39:42;;;;;;;4.67;1.20;;;;;;;-145.18;0.00;102943.50;5072285;28;20024;-68
2021/09/30 09:42:16;;;;;;;7.87;1.20;;;;;;;-145.18;0.00;102943.50;5073611;28;20040;-68
2021/09/30 09:45:07;;;;;;;7.03;1.33;;;;;;;-145.18;0.00;102943.50;5065772;28;20020;-68
2021/09/30 09:47:36;;;;;;;5.68;1.23;;;;;;;-145.18;0.00;102943.50;5068622;28;20500;-68
2021/09/30 09:50:22;;;;;;;8.67;1.30;;;;;;;-145.18;0.00;102943.50;5069720;28;20114;-68
2021/09/30 09:53:00;;;;;;;4.87;1.13;;;;;;;-145.18;0.00;102943.50;5068976;28;20535;-68
2021/09/30 09:55:37;;;;;;;4.20;1.13;;;;;;;-145.18;0.00;102943.50;5071685;28;20024;-68
2021/09/30 09:58:14;;;;;;;7.20;1.10;;;;;;;-145.18;0.00;102943.50;5062093;28;20032;-68
2021/09/30 10:00:42;;;;;;;4.23;1.20;;;;;;;-145.18;0.00;102943.50;5072664;28;20427;-68
2021/09/30 10:03:30;;;;;;;4.00;0.93;;;;;;;-145.18;0.00;102943.50;5067610;28;20517;-68
2021/09/30 10:06:01;;;;;;;2.03;0.80;;;;;;;-145.18;0.00;102943.50;5070462;28;20368;-68
2021/09/30 10:08:27;;;;;;;8.50;1.47;;;;;;;-145.18;0.00;102943.50;5071399;28;20032;-68
2021/09/30 10:10:54;;;;;;;8.70;1.20;;;;;;;-145.18;0.00;102943.50;5068074;28;20232;-69
2021/09/30 10:13:21;;;;;;;2.23;0.80;;;;;;;-145.18;0.00;102943.50;5072716;28;20032;-68
2021/09/30 10:15:47;;;;;;;5.17;1.07;;;;;;;-145.18;0.00;102943.50;5077195;28;20275;-68
2021/09/30 10:18:13;;;;;;;5.03;0.97;;;;;;;-145.18;0.00;102943.50;5073404;28;20032;-68
2021/09/30 10:20:41;;;;;;;4.23;1.10;;;;;;;-145.18;0.00;102943.50;5065421;28;20035;-68
2021/09/30 10:23:09;;;;;;;4.63;1.53;;;;;;;-145.18;0.00;102943.50;5067601;28;20028;-68
2021/09/30 10:25:41;;;;;;;5.23;0.80;;;;;;;-145.18;0.00;102943.50;5062889;28;20042;-68
2021/09/30 10:28:08;;;;;;;2.90;1.05;;;;;;;-145.18;0.00;102943.50;5070607;28;20032;-68
2021/09/30 10:30:39;;;;;;;5.23;0.93;;;;;;;-145.18;0.00;102943.50;5072965;28;20036;-68
2021/09/30 10:33:10;;;;;;;2.80;0.80;;;;;;;-145.18;0.00;102943.50;5075957;28;20416;-68
2021/09/30 10:35:44;;;;;;;7.43;0.90;;;;;;;-145.18;0.00;102943.50;5070733;28;20275;-68
2021/09/30 10:38:25;;;;;;;7.00;1.67;;;;;;;-145.18;0.00;102943.50;5073387;28;20043;-68
2021/09/30 10:41:12;;;;;;;3.90;1.10;;;;;;;-145.18;0.00;102943.50;5071107;28;20039;-68
2021/09/30 10:43:42;;;;;;;8.33;1.10;;;;;;;-145.18;0.00;102943.50;5078363;28;20102;-68
2021/09/30 10:46:30;;;;;;;5.00;1.00;;;;;;;-145.18;0.00;102943.50;5075290;28;20244;-68
2021/09/30 10:48:56;;;;;;;4.53;1.30;;;;;;;-145.18;0.00;102943.50;5076186;28;20059;-68
2021/09/30 10:51:22;;;;;;;5.27;1.03;;;;;;;-145.18;0.00;102943.50;5079023;28;20112;-68
2021/09/30 10:53:57;;;;;;;5.23;1.00;;;;;;;-145.18;0.00;102943.50;5077741;28;20109;-68
2021/09/30 10:56:40;;;;;;;4.13;0.80;;;;;;;-145.18;0.00;102943.50;5068021;28;20093;-68
2021/09/30 10:59:39;;;;;;;4.77;1.10;;;;;;;-145.18;0.00;102943.50;5067221;28;20054;-68
2021/09/30 11:02:07;;;;;;;4.00;1.00;;;;;;;-145.18;0.00;102943.50;5073654;28;20044;-68
2021/09/30 11:05:03;;;;;;;3.67;0.80;;;;;;;-145.18;0.00;102943.50;5071141;28;20042;-68
2021/09/30 11:07:29;;;;;;;5.50;1.33;;;;;;;-145.18;0.00;102943.50;5068405;28;20213;-68
2021/09/30 11:10:14;;;;;;;2.23;0.73;;;;;;;-145.18;0.00;102943.50;5073827;28;20042;-68
2021/09/30 11:13:00;;;;;;;7.80;1.20;;;;;;;-145.18;0.00;102943.50;5077667;28;20028;-68
2021/09/30 11:16:03;;;;;;;6.93;1.10;;;;;;;-145.18;0.00;102943.50;5072176;28;20226;-68
2021/09/30 11:18:47;;;;;;;7.50;1.37;;;;;;;-145.18;0.00;102943.50;5068704;28;20033;-69
2021/09/30 11:21:51;;;;;;;4.37;0.80;;;;;;;-145.18;0.00;102943.50;5077991;28;20062;-68
2021/09/30 11:24:31;;;;;;;5.90;0.90;;;;;;;-145.18;0.00;102943.50;5025788;28;20377;-68
2021/09/30 11:27:08;;;;;;;3.73;1.00;;;;;;;-145.18;0.00;102943.50;5035575;28;20036;-68
2021/09/30 11:29:33;;;;;;;5.30;1.00;;;;;;;-145.18;0.00;102943.50;5028318;28;20304;-68
2021/09/30 11:32:23;;;;;;;5.97;1.40;;;;;;;-145.18;0.00;102943.50;5033534;28;20553;-68
2021/09/30 11:34:51;;;;;;;6.97;1.30;;;;;;;-145.18;0.00;102943.50;5037536;28;20108;-68
2021/09/30 11:37:40;;;;;;;3.93;1.00;;;;;;;-145.18;0.00;102943.50;5028632;28;20068;-68
2021/09/30 11:40:11;;;;;;;3.27;0.90;;;;;;;-145.18;0.00;102943.50;5028149;28;20107;-68
2021/09/30 11:42:42;;;;;;;3.85;1.08;;;;;;;-145.18;0.00;102943.50;5037768;28;20033;-68
2021/09/30 11:45:18;;;;;;;6.43;0.90;;;;;;;-145.18;0.00;102943.50;5037128;28;20106;-68
2021/09/30 11:47:46;;;;;;;2.27;0.60;;;;;;;-145.18;0.00;102943.50;5036597;28;20321;-69
2021/09/30 11:50:29;;;;;;;5.13;0.93;;;;;;;-145.18;0.00;102943.50;5030691;28;20043;-69
2021/09/30 11:53:21;;;;;;;3.27;0.70;;;;;;;-145.18;0.00;102943.50;5033452;28;20067;-70
2021/09/30 11:55:48;;;;;;;1.50;0.63;;;;;;;-145.18;0.00;102943.50;5067561;28;20047;-69
2021/09/30 11:58:15;;;;;;;3.13;0.77;;;;;;;-145.18;0.00;102943.50;5072542;28;20275;-70
2021/09/30 12:00:47;;;;;;;2.47;1.00;;;;;;;-145.18;0.00;102943.50;5073956;28;20024;-69
2021/09/30 12:03:12;;;;;;;2.65;0.50;;;;;;;-145.18;0.00;102943.50;5078209;28;20133;-69
2021/09/30 12:05:39;;;;;;;4.93;0.77;;;;;;;-145.18;0.00;102943.50;5081862;28;20028;-69
2021/09/30 12:08:07;;;;;;;5.20;0.70;;;;;;;-145.18;0.00;102943.50;5076798;28;20067;-69
2021/09/30 12:10:34;;;;;;;5.30;1.00;;;;;;;-145.18;0.00;102943.50;5075237;28;20563;-70
2021/09/30 12:13:20;;;;;;;1.40;0.60;;;;;;;-145.18;0.00;102943.50;5080983;28;20515;-70
2021/09/30 12:15:47;;;;;;;3.33;0.70;;;;;;;-145.18;0.00;102943.50;5069711;28;20119;-70
2021/09/30 12:18:14;;;;;;;3.97;1.00;;;;;;;-145.18;0.00;102943.50;5077210;28;20558;-70
2021/09/30 12:20:47;;;;;;;3.80;0.80;;;;;;;-145.18;0.00;102943.50;5080695;28;20448;-70
2021/09/30 12:23:15;;;;;;;2.93;0.80;;;;;;;-145.18;0.00;102943.50;5080329;28;20273;-70
2021/09/30 12:25:40;;;;;;;2.57;0.80;;;;;;;-145.18;0.00;102943.50;5081167;28;20020;-71
2021/09/30 12:28:06;;;;;;;3.08;0.77;;;;;;;-145.18;0.00;102943.50;5075810;28;20123;-71
2021/09/30 12:30:31;;;;;;;2.53;0.70;;;;;;;-145.18;0.00;102943.50;5081393;28;20028;-71
2021/09/30 12:33:02;;;;;;;4.97;0.90;;;;;;;-145.18;0.00;102943.50;5079943;28;20042;-71
2021/09/30 12:35:46;;;;;;;4.32;0.63;;;;;;;-145.18;0.00;102943.50;5075301;28;20040;-71
2021/09/30 12:38:20;;;;;;;4.03;0.90;;;;;;;-145.18;0.00;102943.50;5078458;28;20520;-71
2021/09/30 12:40:53;;;;;;;4.38;0.57;;;;;;;-145.18;0.00;102943.50;5076206;28;20043;-71
2021/09/30 12:43:26;;;;;;;3.83;0.65;;;;;;;-145.18;0.00;102943.50;5075121;28;20043;-70
2021/09/30 12:46:01;;;;;;;3.83;0.87;;;;;;;-145.18;0.00;102943.50;5085130;28;20148;-70
2021/09/30 12:48:29;;;;;;;4.57;1.20;;;;;;;-145.18;0.00;102943.50;5067584;28;20126;-70
2021/09/30 12:51:10;;;;;;;5.93;0.80;;;;;;;-145.18;0.00;102943.50;5080349;28;20486;-70
2021/09/30 12:53:53;;;;;;;4.60;1.10;;;;;;;-145.18;0.00;102943.50;5066971;28;20031;-69
2021/09/30 12:56:20;;;;;;;;;;;;;;;-145.18;0.00;102943.50;5086066;28;20174;-70
2021/09/30 12:58:47;;;;;;;1.93;0.73;;;;;;;-145.18;0.00;102943.50;5075432;28;19920;-71
2021/09/30 13:01:30;;;;;;;3.23;0.80;;;;;;;-145.18;0.00;102943.50;5075076;28;20105;-71
2021/09/30 13:04:21;;;;;;;;;;;;;;;-145.18;0.00;102943.50;5074602;28;20044;-71
2021/09/30 13:07:18;;;;;;;2.65;0.73;;;;;;;-145.18;0.00;102943.50;5074426;28;20190;-69
2021/09/30 13:09:44;;;;;;;2.55;0.82;;;;;;;-145.18;0.00;102943.50;5044963;28;20114;-69
2021/09/30 13:12:15;;;;;;;1.98;0.80;;;;;;;-145.18;0.00;102943.50;5079972;28;20639;-69
2021/09/30 13:14:46;;;;;;;4.57;0.90;;;;;;;-145.18;0.00;102943.50;5075325;28;20488;-69
2021/09/30 13:17:23;;;;;;;3.78;0.70;;;;;;;-145.18;0.00;102943.50;5079382;28;20028;-69
2021/09/30 13:19:54;;;;;;;1.77;0.63;;;;;;;-145.18;0.00;102943.50;5078972;28;20019;-69
2021/09/30 13:22:35;;;;;;;3.13;1.03;;;;;;;-145.18;0.00;102943.50;5080528;28;20024;-71
2021/09/30 13:25:13;;;;;;;2.60;0.60;;;;;;;-145.18;0.00;102943.50;5077928;28;20161;-69
2021/09/30 13:27:40;;;;;;;2.17;0.60;;;;;;;-145.18;0.00;102943.50;5074924;28;20056;-68
2021/09/30 13:30:14;;;;;;;5.73;0.90;;;;;;;-145.18;0.00;102943.50;5078151;28;20305;-68
2021/09/30 13:32:42;;;;;;;4.13;0.80;;;;;;;-145.18;0.00;102943.50;5078032;28;20016;-68
2021/09/30 13:35:09;;;;;;;5.07;0.90;;;;;;;-145.18;0.00;102943.50;5069428;28;20054;-69
2021/09/30 13:37:34;;;;;;;3.93;0.80;;;;;;;-145.18;0.00;102943.50;5078329;28;20028;-68
2021/09/30 13:40:01;;;;;;;3.97;0.97;;;;;;;-145.18;0.00;102943.50;5068944;28;20104;-68
2021/09/30 13:42:31;;;;;;;2.77;1.10;;;;;;;-145.18;0.00;102943.50;5079341;28;20479;-68
2021/09/30 13:44:57;;;;;;;3.07;0.80;;;;;;;-145.18;0.00;102943.50;5076987;28;20031;-67
2021/09/30 13:47:28;;;;;;;5.03;0.90;;;;;;;-145.18;0.00;102943.50;5078768;28;20028;-68
2021/09/30 13:49:54;;;;;;;7.13;1.10;;;;;;;-145.18;0.00;102943.50;5071007;28;20024;-68
2021/09/30 13:52:19;;;;;;;2.13;0.80;;;;;;;-145.18;0.00;102943.50;5079294;28;20255;-68
2021/09/30 13:54:45;;;;;;;3.77;0.70;;;;;;;-145.18;0.00;102943.50;5078449;28;20027;-70
2021/09/30 13:57:10;;;;;;;10.57;1.10;;;;;;;-145.18;0.00;102943.50;5079206;28;20441;-68
2021/09/30 13:59:37;;;;;;;3.07;0.60;;;;;;;-145.18;0.00;102943.50;5070182;28;20032;-68
2021/09/30 14:02:04;;;;;;;4.40;0.70;;;;;;;-145.18;0.00;102943.50;5078129;28;20048;-68
2021/09/30 14:04:29;;;;;;;3.60;0.80;;;;;;;-145.18;0.00;102943.50;5072723;28;20020;-68
2021/09/30 14:06:56;;;;;;;1.30;0.50;;;;;;;-145.18;0.00;102943.50;5079342;28;20373;-68
2021/09/30 14:09:22;;;;;;;1.90;0.70;;;;;;;-145.18;0.00;102943.50;5076823;28;20162;-67